Joy — V2EI9 — position and weather

sailwx.info

Track history (hours):
 
Tides and Currents Weather Stations Pressure Air Temp Water Temp Dewpoint Dewpoint Depression Visibility Wind Speed Wind Dir Waves Ship Positions

Joy

Last reported at 2015-Aug-26 04:17 UTC. Time now 2015-Sep-02 04:31 UTC.
Position N 36°39' W 007°38'.

Length 105 m; draft 6.4 m.

Type: Cargo ship. MMSI: 305444000.

Date/timePositionNaut miles runAvg speedWind from/ knotsBaromVisibWave heightAir tempDewpointWater temp
2015-Aug-26 04:17N 36°39' W 007°38'810.4
2015-Aug-26 03:33N 36°37' W 007°47'1010.1
2015-Aug-26 02:34N 36°37' W 007°59'1010.2
2015-Aug-26 01:34N 36°36' W 008°12'5010.0
2015-Aug-25 20:33N 36°33' W 009°14'10 9.8
2015-Aug-25 19:33N 36°39' W 009°23'1010.3
2015-Aug-25 18:33N 36°47' W 009°32'1010.4
2015-Aug-25 17:34N 36°57' W 009°36'1110.6
2015-Aug-25 16:33N 37°07' W 009°38'1010.5
2015-Aug-25 15:34N 37°18' W 009°41'1110.5
2015-Aug-25 14:33N 37°28' W 009°45'1110.4
2015-Aug-25 13:29N 37°39' W 009°48'9 9.9
2015-Aug-25 12:33N 37°48' W 009°50'10 9.9
2015-Aug-25 11:33N 37°58' W 009°53'10 9.8
2015-Aug-25 10:34N 38°07' W 009°56'10 9.9
2015-Aug-25 09:32N 38°17' W 009°59'1010.6
2015-Aug-25 08:33N 38°27' W 010°02'1110.9
2015-Aug-25 07:33N 38°38' W 010°05'1110.9
2015-Aug-25 06:33N 38°48' W 010°06'1010.4
2015-Aug-25 05:33N 38°59' W 010°06'10 9.8
2015-Aug-25 04:33N 39°09' W 010°06'  
2015-Aug-22 06:14N 45°22' W 002°18'1010.3
2015-Aug-22 05:13N 45°26' W 002°04'710.3
2015-Aug-22 04:33N 45°28' W 001°54'1210.1
2015-Aug-22 03:21N 45°32' W 001°38'1010.4
2015-Aug-22 02:24N 45°36' W 001°25'55 2.0
2015-Aug-20 22:33N 44°55' W 000°33'47 6.5
2015-Aug-20 15:13N 45°37' W 001°05'711.0
2015-Aug-20 14:32N 45°39' W 001°15'9 3.9
2015-Aug-20 12:12N 45°36' W 001°27'0 0.0
2015-Aug-20 09:24N 45°36' W 001°27'0 0.0
2015-Aug-20 08:27N 45°36' W 001°27'0 0.1
2015-Aug-20 06:29N 45°36' W 001°27'20 8.4
2015-Aug-20 04:06N 45°18' W 001°39'610.7
2015-Aug-20 03:33N 45°13' W 001°43'1110.9
2015-Aug-20 02:33N 45°04' W 001°50'1111.4
2015-Aug-20 01:33N 44°54' W 001°59'1111.4
2015-Aug-20 00:33N 44°44' W 002°07'1111.1
2015-Aug-19 23:33N 44°34' W 002°14'3311.1
2015-Aug-19 20:33N 44°05' W 002°36'  
Track history (hours):
 
Tides and Currents Weather Stations Pressure Air Temp Water Temp Dewpoint Dewpoint Depression Visibility Wind Speed Wind Dir Waves Ship Positions

Joy

Last reported at 2015-Aug-26 04:17 UTC. Time now 2015-Sep-02 04:31 UTC.
Position N 36°39' W 007°38'.

Length 105 m; draft 6.4 m.

Type: Cargo ship. MMSI: 305444000.

Date/timePositionNaut miles runAvg speedWind from/ knotsBaromVisibWave heightAir tempDewpointWater temp
2015-Aug-26 04:17N 36°39' W 007°38'810.4
2015-Aug-26 03:33N 36°37' W 007°47'1010.1
2015-Aug-26 02:34N 36°37' W 007°59'1010.2
2015-Aug-26 01:34N 36°36' W 008°12'5010.0
2015-Aug-25 20:33N 36°33' W 009°14'10 9.8
2015-Aug-25 19:33N 36°39' W 009°23'1010.3
2015-Aug-25 18:33N 36°47' W 009°32'1010.4
2015-Aug-25 17:34N 36°57' W 009°36'1110.6
2015-Aug-25 16:33N 37°07' W 009°38'1010.5
2015-Aug-25 15:34N 37°18' W 009°41'1110.5
2015-Aug-25 14:33N 37°28' W 009°45'1110.4
2015-Aug-25 13:29N 37°39' W 009°48'9 9.9
2015-Aug-25 12:33N 37°48' W 009°50'10 9.9
2015-Aug-25 11:33N 37°58' W 009°53'10 9.8
2015-Aug-25 10:34N 38°07' W 009°56'10 9.9
2015-Aug-25 09:32N 38°17' W 009°59'1010.6
2015-Aug-25 08:33N 38°27' W 010°02'1110.9
2015-Aug-25 07:33N 38°38' W 010°05'1110.9
2015-Aug-25 06:33N 38°48' W 010°06'1010.4
2015-Aug-25 05:33N 38°59' W 010°06'10 9.8
2015-Aug-25 04:33N 39°09' W 010°06'  
2015-Aug-22 06:14N 45°22' W 002°18'1010.3
2015-Aug-22 05:13N 45°26' W 002°04'710.3
2015-Aug-22 04:33N 45°28' W 001°54'1210.1
2015-Aug-22 03:21N 45°32' W 001°38'1010.4
2015-Aug-22 02:24N 45°36' W 001°25'55 2.0
2015-Aug-20 22:33N 44°55' W 000°33'47 6.5
2015-Aug-20 15:13N 45°37' W 001°05'711.0
2015-Aug-20 14:32N 45°39' W 001°15'9 3.9
2015-Aug-20 12:12N 45°36' W 001°27'0 0.0
2015-Aug-20 09:24N 45°36' W 001°27'0 0.0
2015-Aug-20 08:27N 45°36' W 001°27'0 0.1
2015-Aug-20 06:29N 45°36' W 001°27'20 8.4
2015-Aug-20 04:06N 45°18' W 001°39'610.7
2015-Aug-20 03:33N 45°13' W 001°43'1110.9
2015-Aug-20 02:33N 45°04' W 001°50'1111.4
2015-Aug-20 01:33N 44°54' W 001°59'1111.4
2015-Aug-20 00:33N 44°44' W 002°07'1111.1
2015-Aug-19 23:33N 44°34' W 002°14'3311.1
2015-Aug-19 20:33N 44°05' W 002°36'  

Dump ship's entire track history